Time;durP1;ratioP1;P1;durP2;ratioP2;P2;SDS_P1;SDS_P2;PMS_P1;PMS_P2;Temp;Humidity;BMP_temperature;BMP_pressure;BME280_temperature;BME280_humidity;BME280_pressure;Samples;Min_cycle;Max_cycle;Signal;HPM_P1;HPM_P2
2023/03/31 00:00:10;;;;;;;9.15;2.83;;;11.10;53.10;;;;;;5054792;28;20475;-64
2023/03/31 00:02:40;;;;;;;11.05;2.45;;;11.10;53.00;;;;;;5054765;28;20514;-64
2023/03/31 00:05:07;;;;;;;6.43;2.45;;;11.10;54.20;;;;;;5054666;28;20515;-64
2023/03/31 00:07:32;;;;;;;10.85;2.65;;;11.10;53.40;;;;;;5054691;28;20493;-64
2023/03/31 00:10:00;;;;;;;10.50;2.35;;;11.20;53.90;;;;;;5054591;28;20037;-64
2023/03/31 00:12:26;;;;;;;10.18;2.67;;;11.20;51.70;;;;;;5053180;28;20086;-64
2023/03/31 00:14:52;;;;;;;12.25;2.55;;;11.20;52.50;;;;;;5054712;28;20033;-63
2023/03/31 00:17:17;;;;;;;9.40;2.90;;;11.20;51.50;;;;;;5054351;28;20107;-63
2023/03/31 00:19:43;;;;;;;9.82;2.60;;;11.20;51.40;;;;;;5054090;28;20029;-63
2023/03/31 00:22:09;;;;;;;9.10;2.47;;;11.10;57.00;;;;;;5053992;28;20051;-63
2023/03/31 00:24:34;;;;;;;14.75;2.88;;;11.20;53.20;;;;;;5054348;28;20036;-66
2023/03/31 00:27:02;;;;;;;8.98;2.42;;;11.20;53.30;;;;;;5054368;28;20025;-63
2023/03/31 00:29:28;;;;;;;9.85;2.80;;;11.20;54.40;;;;;;5054119;28;20021;-63
2023/03/31 00:31:54;;;;;;;13.57;2.83;;;11.10;55.90;;;;;;5054349;28;20048;-63
2023/03/31 00:34:20;;;;;;;5.40;2.08;;;11.10;58.80;;;;;;5054164;28;20068;-63
2023/03/31 00:36:46;;;;;;;7.93;2.25;;;11.00;61.40;;;;;;5053655;28;20575;-63
2023/03/31 00:39:14;;;;;;;11.05;2.00;;;11.00;63.60;;;;;;5053920;28;20109;-63
2023/03/31 00:41:40;;;;;;;7.35;2.22;;;11.00;63.60;;;;;;5053984;28;20562;-64
2023/03/31 00:44:23;;;;;;;10.77;2.65;;;11.00;62.10;;;;;;5053975;28;20056;-63
2023/03/31 00:47:11;;;;;;;11.77;2.67;;;11.00;57.90;;;;;;5053825;28;20059;-63
2023/03/31 00:49:55;;;;;;;12.40;2.75;;;11.00;62.40;;;;;;5054045;28;20159;-64
2023/03/31 00:52:31;;;;;;;8.40;2.40;;;10.90;62.70;;;;;;5052564;28;20033;-63
2023/03/31 00:55:00;;;;;;;8.50;2.20;;;10.90;62.80;;;;;;5053698;28;20117;-63
2023/03/31 00:57:28;;;;;;;8.07;2.13;;;10.90;63.80;;;;;;5053565;28;20102;-63
2023/03/31 01:00:00;;;;;;;9.25;2.40;;;10.90;64.70;;;;;;5053612;28;20071;-63
2023/03/31 01:02:27;;;;;;;10.10;2.45;;;10.80;66.00;;;;;;5053568;28;20036;-63
2023/03/31 01:04:58;;;;;;;9.43;2.10;;;10.90;66.50;;;;;;5053505;28;20051;-63
2023/03/31 01:07:32;;;;;;;7.07;1.90;;;10.90;66.30;;;;;;5052485;28;20040;-63
2023/03/31 01:10:00;;;;;;;7.88;2.00;;;10.90;61.80;;;;;;5053422;28;20033;-63
2023/03/31 01:12:26;;;;;;;9.25;2.22;;;10.90;62.50;;;;;;5053421;28;20494;-63
2023/03/31 01:14:53;;;;;;;7.90;2.15;;;10.90;61.00;;;;;;5053306;28;20111;-63
2023/03/31 01:17:20;;;;;;;6.60;2.15;;;10.90;60.30;;;;;;5053251;28;20029;-63
2023/03/31 01:20:13;;;;;;;6.55;2.20;;;10.80;60.80;;;;;;5053281;28;20074;-63
2023/03/31 01:23:18;;;;;;;8.38;2.45;;;10.90;59.70;;;;;;5053469;28;20029;-65
2023/03/31 01:26:24;;;;;;;8.77;2.33;;;10.80;59.30;;;;;;5053075;28;20017;-63
2023/03/31 01:29:29;;;;;;;5.57;2.10;;;10.80;62.50;;;;;;5053225;28;20475;-63
2023/03/31 01:32:30;;;;;;;9.73;2.50;;;10.80;64.40;;;;;;5053065;28;20029;-63
2023/03/31 01:35:36;;;;;;;8.45;2.28;;;10.80;62.50;;;;;;5052459;28;20025;-63
2023/03/31 01:38:32;;;;;;;10.80;3.05;;;10.80;62.90;;;;;;5053015;28;20410;-66
2023/03/31 01:41:15;;;;;;;6.80;2.30;;;10.70;66.90;;;;;;5052933;28;20036;-63
2023/03/31 01:44:04;;;;;;;11.23;2.72;;;10.80;65.20;;;;;;5053060;28;20025;-64
2023/03/31 01:46:36;;;;;;;9.52;2.25;;;10.70;67.60;;;;;;5052852;28;20029;-64
2023/03/31 01:49:24;;;;;;;7.68;2.22;;;10.70;70.50;;;;;;5052072;28;20025;-64
2023/03/31 01:52:17;;;;;;;8.32;2.47;;;10.60;69.40;;;;;;5052991;28;20509;-64
2023/03/31 01:55:07;;;;;;;8.60;2.70;;;10.70;70.60;;;;;;5053061;28;20021;-64
2023/03/31 01:57:38;;;;;;;8.27;2.50;;;10.70;69.50;;;;;;5052834;28;20031;-64
2023/03/31 02:00:10;;;;;;;9.07;2.75;;;10.70;68.10;;;;;;5053011;28;20031;-64
2023/03/31 02:02:46;;;;;;;9.65;2.75;;;10.70;63.00;;;;;;5053159;28;20113;-64
2023/03/31 02:05:17;;;;;;;10.23;2.92;;;10.80;55.50;;;;;;5053005;28;20079;-64
2023/03/31 02:07:49;;;;;;;7.97;2.92;;;10.80;54.40;;;;;;5051636;28;20032;-64
2023/03/31 02:10:16;;;;;;;8.68;2.67;;;10.90;53.40;;;;;;5052752;28;20017;-64
2023/03/31 02:12:43;;;;;;;12.23;3.17;;;11.00;57.20;;;;;;5053000;28;20136;-64
2023/03/31 02:15:15;;;;;;;10.00;2.95;;;11.00;56.40;;;;;;5052912;28;20381;-64
2023/03/31 02:17:45;;;;;;;8.80;2.70;;;11.00;67.30;;;;;;5052732;28;20021;-64
2023/03/31 02:20:14;;;;;;;12.93;2.85;;;11.00;80.00;;;;;;5052580;28;20471;-64
2023/03/31 02:22:44;;;;;;;8.25;2.65;;;10.90;92.10;;;;;;5052699;28;20364;-64
2023/03/31 02:25:14;;;;;;;11.85;3.05;;;10.80;99.90;;;;;;5051692;28;20021;-64
2023/03/31 02:27:43;;;;;;;11.63;3.20;;;10.70;99.90;;;;;;5052777;28;20061;-63
2023/03/31 02:30:10;;;;;;;11.23;3.58;;;10.60;99.90;;;;;;5051612;28;20498;-63
2023/03/31 02:32:39;;;;;;;9.00;3.50;;;10.50;99.90;;;;;;5052720;28;20025;-63
2023/03/31 02:35:09;;;;;;;8.38;3.38;;;10.50;99.90;;;;;;5051756;28;20114;-63
2023/03/31 02:37:34;;;;;;;13.25;4.18;;;10.40;99.90;;;;;;5052496;28;20055;-63
2023/03/31 02:40:05;;;;;;;11.63;3.45;;;10.40;99.90;;;;;;5051319;28;20104;-63
2023/03/31 02:42:31;;;;;;;12.70;3.97;;;10.40;99.90;;;;;;5052452;28;20021;-63
2023/03/31 02:45:36;;;;;;;11.85;4.72;;;10.30;99.90;;;;;;5055369;28;20032;-63
2023/03/31 02:48:03;;;;;;;15.65;5.03;;;10.30;99.90;;;;;;5056032;28;20078;-63
2023/03/31 02:50:40;;;;;;;11.93;4.55;;;10.30;99.90;;;;;;5056036;28;20032;-63
2023/03/31 02:53:26;;;;;;;15.82;5.38;;;10.30;99.90;;;;;;5056198;28;20450;-63
2023/03/31 02:56:22;;;;;;;12.00;3.80;;;10.30;99.90;;;;;;5056104;28;20025;-63
2023/03/31 02:59:03;;;;;;;13.88;4.30;;;10.30;99.90;;;;;;5055958;28;20029;-64
2023/03/31 03:02:09;;;;;;;17.23;5.07;;;10.30;99.90;;;;;;5055850;28;20150;-63
2023/03/31 03:05:00;;;;;;;14.73;4.80;;;10.30;99.90;;;;;;5055927;28;20056;-63
2023/03/31 03:10:43;;;;;;;12.15;3.40;;;10.30;99.90;;;;;;5111067;27;20434;-63
2023/03/31 03:13:19;;;;;;;14.20;3.55;;;10.30;99.90;;;;;;5111326;28;20055;-64
2023/03/31 03:15:49;;;;;;;11.95;3.20;;;10.40;99.90;;;;;;5111317;28;20069;-63
2023/03/31 03:18:15;;;;;;;9.63;3.53;;;10.30;99.90;;;;;;5109861;28;20031;-63
2023/03/31 03:20:47;;;;;;;10.90;3.30;;;10.30;99.90;;;;;;5111244;28;20024;-63
2023/03/31 03:23:13;;;;;;;6.65;2.70;;;10.30;99.90;;;;;;5110962;28;20023;-63
2023/03/31 03:25:38;;;;;;;10.00;3.78;;;10.30;99.90;;;;;;5110876;28;20024;-64
2023/03/31 03:28:04;;;;;;;12.43;4.57;;;10.30;99.90;;;;;;5110798;28;20389;-63
2023/03/31 03:30:29;;;;;;;16.15;4.82;;;10.30;99.90;;;;;;5110569;28;20016;-63
2023/03/31 03:32:57;;;;;;;11.75;4.00;;;10.30;99.90;;;;;;5110720;28;20020;-63
2023/03/31 03:35:23;;;;;;;13.93;4.80;;;10.20;99.90;;;;;;5109588;28;20016;-64
2023/03/31 03:37:48;;;;;;;17.35;4.38;;;10.20;99.90;;;;;;5110635;28;20028;-64
2023/03/31 03:40:14;;;;;;;9.00;4.10;;;10.20;99.90;;;;;;5110628;28;20118;-63
2023/03/31 03:42:39;;;;;;;14.40;3.70;;;10.20;99.90;;;;;;5110479;28;20016;-64
2023/03/31 03:45:06;;;;;;;9.55;3.80;;;10.20;99.90;;;;;;5110595;28;20076;-63
2023/03/31 03:47:32;;;;;;;15.55;3.63;;;10.20;99.90;;;;;;5109313;28;20024;-64
2023/03/31 03:49:58;;;;;;;14.18;3.78;;;10.20;99.90;;;;;;5110329;28;20040;-63
2023/03/31 03:52:23;;;;;;;11.82;4.20;;;10.20;99.90;;;;;;5110159;28;20146;-63
2023/03/31 03:54:49;;;;;;;11.85;3.75;;;10.20;99.90;;;;;;5110337;28;20111;-63
2023/03/31 03:57:15;;;;;;;9.77;4.28;;;10.20;99.90;;;;;;5110320;28;20020;-63
2023/03/31 03:59:40;;;;;;;13.70;4.13;;;10.20;99.90;;;;;;5110214;28;20048;-63
2023/03/31 04:02:06;;;;;;;14.80;4.13;;;10.30;99.90;;;;;;5110439;28;20075;-63
2023/03/31 04:04:32;;;;;;;12.07;4.93;;;10.20;99.90;;;;;;5110100;28;20028;-63
2023/03/31 04:06:57;;;;;;;16.17;4.75;;;10.30;99.90;;;;;;5110145;28;20036;-63
2023/03/31 04:09:23;;;;;;;11.73;4.28;;;10.20;99.90;;;;;;5109865;28;20079;-63
2023/03/31 04:11:48;;;;;;;16.88;4.63;;;10.30;99.90;;;;;;5110041;28;20034;-64
2023/03/31 04:14:14;;;;;;;16.05;5.90;;;10.30;99.90;;;;;;5110136;28;20030;-63
2023/03/31 04:16:39;;;;;;;16.63;5.45;;;10.20;99.90;;;;;;5109754;28;20056;-63
2023/03/31 04:19:05;;;;;;;16.05;4.65;;;10.20;99.90;;;;;;5109994;28;20027;-63
2023/03/31 04:21:33;;;;;;;12.23;3.58;;;10.30;99.90;;;;;;5097767;28;20055;-63
2023/03/31 04:24:03;;;;;;;14.63;3.38;;;10.20;99.90;;;;;;5096113;28;20107;-63
2023/03/31 04:26:41;;;;;;;18.77;4.68;;;10.30;99.90;;;;;;5096057;28;20034;-63
2023/03/31 04:29:08;;;;;;;14.75;4.28;;;10.20;99.90;;;;;;5096083;28;20036;-63
2023/03/31 04:31:37;;;;;;;14.88;3.50;;;10.20;99.90;;;;;;5096132;28;20021;-63
2023/03/31 04:34:05;;;;;;;8.93;3.85;;;10.20;99.90;;;;;;5094970;28;20020;-63
2023/03/31 04:36:32;;;;;;;14.20;3.70;;;10.20;99.90;;;;;;5095907;28;20020;-63
2023/03/31 04:38:58;;;;;;;11.07;3.80;;;10.20;99.90;;;;;;5096085;28;20424;-63
2023/03/31 04:41:26;;;;;;;13.23;3.75;;;10.20;99.90;;;;;;5096066;28;20031;-63
2023/03/31 04:43:52;;;;;;;11.45;3.42;;;10.20;99.90;;;;;;5096086;28;20032;-63
2023/03/31 04:46:17;;;;;;;13.68;3.97;;;10.20;99.90;;;;;;5095711;28;20509;-63
2023/03/31 04:48:43;;;;;;;13.68;3.40;;;10.30;99.90;;;;;;5095706;28;20032;-63
2023/03/31 04:51:09;;;;;;;10.90;3.75;;;10.30;99.90;;;;;;5095652;28;20028;-63
2023/03/31 04:53:35;;;;;;;17.63;3.60;;;10.30;99.90;;;;;;5095683;28;20474;-63
2023/03/31 04:56:01;;;;;;;13.13;3.10;;;10.30;99.90;;;;;;5095768;28;20140;-63
2023/03/31 04:58:26;;;;;;;10.93;3.42;;;10.30;99.90;;;;;;5095665;28;20036;-63
2023/03/31 05:00:52;;;;;;;10.38;3.28;;;10.30;99.90;;;;;;5095520;28;20116;-64
2023/03/31 05:03:18;;;;;;;10.63;3.33;;;10.30;99.90;;;;;;5095430;28;20028;-63
2023/03/31 05:05:43;;;;;;;14.10;3.58;;;10.30;99.90;;;;;;5094427;28;20582;-64
2023/03/31 05:08:09;;;;;;;14.65;3.25;;;10.30;99.90;;;;;;5095141;28;20120;-65
2023/03/31 05:10:35;;;;;;;11.55;3.03;;;10.40;99.90;;;;;;5095364;28;20099;-63
2023/03/31 05:13:01;;;;;;;12.20;2.70;;;10.40;99.90;;;;;;5095181;28;20031;-63
2023/03/31 05:15:26;;;;;;;10.43;3.03;;;10.40;99.90;;;;;;5095329;28;20032;-63
2023/03/31 05:17:52;;;;;;;15.77;3.15;;;10.30;99.90;;;;;;5095278;28;20367;-63
2023/03/31 05:20:18;;;;;;;8.27;2.80;;;10.40;99.90;;;;;;5095051;28;20039;-63
2023/03/31 05:22:45;;;;;;;14.82;3.00;;;10.40;99.90;;;;;;5095091;28;20500;-64
2023/03/31 05:25:17;;;;;;;13.20;3.25;;;10.40;99.90;;;;;;5093925;28;20028;-64
2023/03/31 05:27:43;;;;;;;10.60;2.58;;;10.40;99.90;;;;;;5095059;28;20028;-63
2023/03/31 05:30:09;;;;;;;11.30;2.80;;;10.40;99.90;;;;;;5094922;28;20034;-64
2023/03/31 05:32:35;;;;;;;13.30;3.20;;;10.40;99.90;;;;;;5093937;28;20024;-64
2023/03/31 05:35:01;;;;;;;11.23;2.67;;;10.40;99.90;;;;;;5094975;28;20020;-63
2023/03/31 05:37:26;;;;;;;10.30;2.88;;;10.40;99.90;;;;;;5094953;28;20111;-63
2023/03/31 05:39:52;;;;;;;12.23;3.08;;;10.50;99.90;;;;;;5094824;28;20027;-63
2023/03/31 05:42:18;;;;;;;12.25;2.90;;;10.50;99.90;;;;;;5094584;28;20103;-64
2023/03/31 05:44:44;;;;;;;9.40;2.58;;;10.50;99.90;;;;;;5094757;28;20024;-63
2023/03/31 05:47:10;;;;;;;6.80;2.60;;;10.60;99.90;;;;;;5094605;28;20043;-65
2023/03/31 05:49:37;;;;;;;14.02;2.72;;;10.60;99.90;;;;;;5094380;28;20054;-63
2023/03/31 05:52:03;;;;;;;5.18;1.98;;;10.60;99.90;;;;;;5094148;28;20035;-64
2023/03/31 05:54:29;;;;;;;8.40;2.58;;;10.60;99.90;;;;;;5094320;28;20057;-63
2023/03/31 05:56:54;;;;;;;12.88;2.70;;;10.60;99.90;;;;;;5093402;28;20599;-64
2023/03/31 05:59:20;;;;;;;7.03;2.20;;;10.60;99.90;;;;;;5094351;28;20073;-63
2023/03/31 06:01:46;;;;;;;6.10;2.45;;;10.60;99.90;;;;;;5094267;28;20028;-63
2023/03/31 06:04:11;;;;;;;8.15;2.80;;;10.50;99.90;;;;;;5094123;28;20510;-63
2023/03/31 06:06:37;;;;;;;7.47;2.38;;;10.50;99.90;;;;;;5094258;28;20040;-63
2023/03/31 06:09:03;;;;;;;9.45;2.35;;;10.50;99.90;;;;;;5093721;28;20052;-64
2023/03/31 06:11:30;;;;;;;10.48;2.55;;;10.50;99.90;;;;;;5094148;28;20020;-63
2023/03/31 06:13:55;;;;;;;6.60;2.30;;;10.50;99.90;;;;;;5093900;28;20021;-63
2023/03/31 06:16:21;;;;;;;5.55;2.25;;;10.50;99.90;;;;;;5094063;28;20027;-63
2023/03/31 06:18:46;;;;;;;9.90;2.30;;;10.50;99.90;;;;;;5092611;28;20121;-64
2023/03/31 06:21:15;;;;;;;7.40;2.50;;;10.50;99.90;;;;;;5094076;28;20077;-65
2023/03/31 06:23:43;;;;;;;7.38;2.03;;;10.40;99.90;;;;;;5093740;28;20552;-64
2023/03/31 06:26:12;;;;;;;5.60;2.08;;;10.50;99.90;;;;;;5094097;28;20039;-64
2023/03/31 06:28:37;;;;;;;8.00;2.35;;;10.50;99.90;;;;;;5093976;28;20504;-64
2023/03/31 06:31:13;;;;;;;8.90;2.38;;;10.60;99.90;;;;;;5093669;28;20020;-64
2023/03/31 06:33:40;;;;;;;3.63;2.03;;;10.70;99.90;;;;;;5093911;28;20109;-64
2023/03/31 06:36:06;;;;;;;10.10;2.45;;;10.70;99.90;;;;;;5093481;28;20024;-64
2023/03/31 06:38:33;;;;;;;6.88;1.95;;;10.80;99.90;;;;;;5093573;28;20032;-64
2023/03/31 06:40:59;;;;;;;7.00;2.40;;;10.80;99.90;;;;;;5093584;28;20024;-64
2023/03/31 06:43:25;;;;;;;4.90;1.92;;;10.80;99.90;;;;;;5092985;28;20031;-64
2023/03/31 06:45:52;;;;;;;6.40;2.40;;;10.80;99.20;;;;;;5093624;28;20477;-64
2023/03/31 06:48:18;;;;;;;8.85;1.98;;;10.80;99.80;;;;;;5093244;28;20030;-64
2023/03/31 06:50:43;;;;;;;7.65;2.33;;;10.90;99.90;;;;;;5093551;28;20024;-64
2023/03/31 06:53:09;;;;;;;6.75;1.80;;;10.80;99.90;;;;;;5093486;28;20028;-64
2023/03/31 06:55:36;;;;;;;4.63;1.80;;;10.90;94.40;;;;;;5093277;28;20031;-64
2023/03/31 06:58:02;;;;;;;5.55;1.65;;;10.90;91.10;;;;;;5093307;28;20016;-63
2023/03/31 07:00:27;;;;;;;5.72;1.70;;;10.90;89.40;;;;;;5093229;28;20543;-64
2023/03/31 07:02:53;;;;;;;6.38;1.73;;;11.00;67.70;;;;;;5093093;28;20028;-64
2023/03/31 07:05:25;;;;;;;9.15;1.63;;;11.00;60.80;;;;;;5093225;28;20020;-64
2023/03/31 07:07:52;;;;;;;5.70;1.50;;;11.00;59.30;;;;;;5093146;28;20035;-64
2023/03/31 07:10:18;;;;;;;6.35;1.55;;;11.10;60.10;;;;;;5092888;28;20055;-64
2023/03/31 07:12:43;;;;;;;5.80;1.40;;;11.00;57.60;;;;;;5093398;28;20028;-64
2023/03/31 07:15:09;;;;;;;6.97;1.85;;;11.10;49.80;;;;;;5093175;28;20032;-64
2023/03/31 07:17:36;;;;;;;2.97;1.38;;;11.10;48.80;;;;;;5092888;28;20115;-65
2023/03/31 07:20:03;;;;;;;3.90;1.40;;;11.20;46.60;;;;;;5093148;28;20032;-64
2023/03/31 07:22:29;;;;;;;6.18;1.80;;;11.20;30.80;;;;;;5093085;28;20032;-63
2023/03/31 07:24:54;;;;;;;2.88;1.17;;;11.20;33.90;;;;;;5092995;28;20024;-63
2023/03/31 07:27:20;;;;;;;3.80;1.42;;;11.10;54.30;;;;;;5093333;28;20450;-64
2023/03/31 07:29:45;;;;;;;3.05;1.25;;;11.00;76.70;;;;;;5093007;28;20200;-64
2023/03/31 07:32:11;;;;;;;3.70;1.58;;;10.90;82.90;;;;;;5092946;28;20024;-64
2023/03/31 07:34:37;;;;;;;3.85;1.50;;;10.80;92.10;;;;;;5092984;28;20032;-64
2023/03/31 07:37:03;;;;;;;6.22;1.65;;;10.80;96.10;;;;;;5092900;28;20423;-64
2023/03/31 07:39:28;;;;;;;3.25;1.13;;;10.70;96.40;;;;;;5092920;28;20056;-64
2023/03/31 07:41:54;;;;;;;8.73;1.52;;;10.70;99.80;;;;;;5093267;28;20020;-66
2023/03/31 07:44:20;;;;;;;5.60;1.40;;;10.70;99.90;;;;;;5092915;28;20428;-64
2023/03/31 07:46:46;;;;;;;6.75;1.83;;;10.60;99.90;;;;;;5092980;28;20024;-64
2023/03/31 07:49:14;;;;;;;9.02;1.63;;;10.60;99.90;;;;;;5092890;28;20035;-65
2023/03/31 07:51:40;;;;;;;4.47;1.33;;;10.60;99.90;;;;;;5092909;28;20382;-64
2023/03/31 07:54:05;;;;;;;5.22;1.58;;;10.70;99.90;;;;;;5093009;28;20024;-64
2023/03/31 07:56:31;;;;;;;3.38;1.65;;;10.70;99.90;;;;;;5095336;28;20500;-64
2023/03/31 07:58:57;;;;;;;5.38;1.55;;;10.60;99.90;;;;;;5096371;28;20038;-64
2023/03/31 08:01:24;;;;;;;7.68;2.28;;;10.50;99.90;;;;;;5096538;28;20436;-64
2023/03/31 08:03:53;;;;;;;6.38;1.63;;;10.50;99.90;;;;;;5096698;28;20032;-66
2023/03/31 08:06:21;;;;;;;8.10;1.95;;;10.50;99.90;;;;;;5096447;28;20028;-64
2023/03/31 08:08:47;;;;;;;6.40;1.85;;;10.50;99.90;;;;;;5096164;28;20143;-64
2023/03/31 08:11:14;;;;;;;11.23;2.92;;;10.40;99.90;;;;;;5096357;28;20027;-63
2023/03/31 08:13:39;;;;;;;6.38;1.58;;;10.40;99.90;;;;;;5096600;28;20047;-63
2023/03/31 08:16:05;;;;;;;5.35;1.73;;;10.40;99.90;;;;;;5096161;28;20055;-63
2023/03/31 08:18:31;;;;;;;8.23;2.22;;;10.50;99.90;;;;;;5096419;28;20073;-63
2023/03/31 08:20:56;;;;;;;5.50;1.90;;;10.50;99.90;;;;;;5096193;28;20032;-63
2023/03/31 08:23:22;;;;;;;8.20;2.17;;;10.50;99.90;;;;;;5096383;28;20020;-63
2023/03/31 08:25:47;;;;;;;5.90;2.40;;;10.40;99.90;;;;;;5096195;28;20024;-63
2023/03/31 08:28:13;;;;;;;9.60;2.20;;;10.40;99.90;;;;;;5096070;28;20043;-64
2023/03/31 08:30:40;;;;;;;7.70;2.05;;;10.40;99.90;;;;;;5096027;28;20020;-63
2023/03/31 08:33:06;;;;;;;4.50;2.38;;;10.40;99.90;;;;;;5095908;28;20497;-63
2023/03/31 08:35:33;;;;;;;11.57;6.32;;;10.40;99.90;;;;;;5095920;28;20020;-63
2023/03/31 08:37:59;;;;;;;7.40;2.50;;;10.40;99.90;;;;;;5096081;28;20047;-64
2023/03/31 08:40:26;;;;;;;4.07;1.75;;;10.40;99.90;;;;;;5095863;28;20032;-64
2023/03/31 08:42:58;;;;;;;8.38;3.67;;;10.40;99.90;;;;;;5095985;28;20105;-64
2023/03/31 08:45:35;;;;;;;49.15;24.50;;;10.40;99.90;;;;;;5095955;28;20024;-63
2023/03/31 08:48:20;;;;;;;11.10;3.40;;;10.30;99.90;;;;;;5094588;28;20077;-63
2023/03/31 08:50:52;;;;;;;7.32;4.03;;;10.30;99.90;;;;;;5094798;28;20398;-66
2023/03/31 08:53:27;;;;;;;7.45;3.50;;;10.30;99.90;;;;;;5094404;28;20028;-64
2023/03/31 08:55:54;;;;;;;18.75;12.30;;;10.40;99.90;;;;;;5094471;28;20465;-63
2023/03/31 08:58:46;;;;;;;8.93;3.50;;;10.40;99.90;;;;;;5094345;28;20020;-64
2023/03/31 09:01:40;;;;;;;5.22;2.95;;;10.50;99.90;;;;;;5095336;28;20027;-64
2023/03/31 09:04:36;;;;;;;15.80;9.07;;;10.60;99.90;;;;;;5095428;28;20040;-64
2023/03/31 09:07:14;;;;;;;13.77;7.40;;;10.60;99.90;;;;;;5095291;28;20032;-63
2023/03/31 09:10:09;;;;;;;5.60;2.88;;;10.60;99.90;;;;;;5094969;28;20048;-63
2023/03/31 09:12:51;;;;;;;10.00;2.42;;;10.60;99.90;;;;;;5095278;28;20140;-64
2023/03/31 09:15:27;;;;;;;5.75;2.05;;;10.60;99.90;;;;;;5095212;28;20032;-64
2023/03/31 09:17:54;;;;;;;4.72;1.50;;;10.70;99.90;;;;;;5095142;28;20469;-64
2023/03/31 09:20:29;;;;;;;5.00;1.90;;;10.80;99.90;;;;;;5095081;28;20035;-64
2023/03/31 09:23:21;;;;;;;7.53;2.30;;;10.80;99.90;;;;;;5095017;28;20086;-63
2023/03/31 09:25:47;;;;;;;10.27;2.25;;;10.90;99.90;;;;;;5095201;28;20036;-63
2023/03/31 09:28:19;;;;;;;9.68;2.45;;;10.90;99.90;;;;;;5095159;28;20570;-64
2023/03/31 09:30:48;;;;;;;9.02;2.20;;;10.90;99.90;;;;;;5095031;28;20048;-65
2023/03/31 09:33:26;;;;;;;11.10;3.28;;;10.90;99.90;;;;;;5094913;28;20028;-64
2023/03/31 09:35:51;;;;;;;12.63;2.83;;;10.90;99.90;;;;;;5094755;28;20024;-64
2023/03/31 09:38:17;;;;;;;8.80;2.30;;;11.10;99.90;;;;;;5093568;28;20088;-63
2023/03/31 09:40:42;;;;;;;10.48;2.60;;;11.10;99.90;;;;;;5095005;28;20023;-63
2023/03/31 09:45:54;;;;;;;10.60;2.70;;;11.20;99.90;;;;;;5089842;27;1175651;-64
2023/03/31 09:48:25;;;;;;;10.88;2.40;;;11.30;99.90;;;;;;5111052;28;20481;-64
2023/03/31 09:50:58;;;;;;;7.55;2.17;;;11.30;99.90;;;;;;5111065;28;20390;-64
2023/03/31 09:53:28;;;;;;;;;;;11.30;99.90;;;;;;5111403;28;20024;-64
2023/03/31 09:55:59;;;;;;;6.65;2.22;;;11.60;99.90;;;;;;5111161;28;20285;-64
2023/03/31 09:58:25;;;;;;;5.25;1.70;;;11.90;97.70;;;;;;5110825;28;20100;-64
2023/03/31 10:01:08;;;;;;;8.38;4.25;;;12.30;82.60;;;;;;5110935;28;20505;-64
2023/03/31 10:03:48;;;;;;;5.18;2.30;;;12.40;71.50;;;;;;5110561;28;20085;-63
2023/03/31 10:06:14;;;;;;;8.02;1.80;;;12.30;79.30;;;;;;5110738;28;20051;-64
2023/03/31 10:08:55;;;;;;;4.70;2.20;;;12.10;70.10;;;;;;5110815;28;20034;-63
2023/03/31 10:11:21;;;;;;;4.63;1.80;;;12.10;90.80;;;;;;5110486;28;20023;-64
2023/03/31 10:13:51;;;;;;;8.85;2.20;;;12.10;71.20;;;;;;5110471;28;20031;-65
2023/03/31 10:16:26;;;;;;;11.40;2.50;;;12.10;82.10;;;;;;5110313;28;20023;-64
2023/03/31 10:18:52;;;;;;;7.85;2.72;;;12.10;79.80;;;;;;5110318;28;20508;-64
2023/03/31 10:21:23;;;;;;;4.80;2.83;;;12.10;90.50;;;;;;5108968;28;20024;-64
2023/03/31 10:23:50;;;;;;;7.90;2.90;;;12.10;88.10;;;;;;5110357;28;20032;-64
2023/03/31 10:26:19;;;;;;;9.23;2.83;;;12.20;85.30;;;;;;5110367;28;20133;-64
2023/03/31 10:28:49;;;;;;;8.23;2.90;;;12.10;95.50;;;;;;5110424;28;20035;-64
2023/03/31 10:31:15;;;;;;;6.28;2.90;;;12.10;97.40;;;;;;5109594;28;20027;-64
2023/03/31 10:33:45;;;;;;;10.68;3.10;;;12.10;97.00;;;;;;5109599;28;20023;-63
2023/03/31 10:36:24;;;;;;;5.95;2.70;;;12.10;88.20;;;;;;5109721;28;20077;-63
2023/03/31 10:38:51;;;;;;;5.45;2.55;;;12.10;93.40;;;;;;5109924;28;20024;-64
2023/03/31 10:41:20;;;;;;;10.18;2.75;;;12.20;83.20;;;;;;5108765;28;20026;-64
2023/03/31 10:43:50;;;;;;;10.98;2.42;;;12.20;83.90;;;;;;5112248;28;20024;-64
2023/03/31 10:46:16;;;;;;;9.73;2.92;;;12.30;63.90;;;;;;5130413;28;20023;-70
2023/03/31 10:48:43;;;;;;;9.05;2.92;;;12.40;60.90;;;;;;5130433;28;20081;-64
2023/03/31 10:51:19;;;;;;;7.03;2.35;;;12.50;55.70;;;;;;5130214;28;20103;-65
2023/03/31 10:53:48;;;;;;;8.02;2.92;;;12.40;54.40;;;;;;5130079;28;20032;-64
2023/03/31 10:56:44;;;;;;;8.93;2.67;;;12.60;56.40;;;;;;5104422;28;20023;-65
2023/03/31 10:59:22;;;;;;;9.32;3.33;;;12.40;42.30;;;;;;5116261;28;20481;-64
2023/03/31 11:02:28;;;;;;;9.95;2.80;;;12.50;55.10;;;;;;5116505;28;20110;-64
2023/03/31 11:08:01;;;;;;;10.45;2.45;;;12.50;44.20;;;;;;5111048;27;20396;-63
2023/03/31 11:10:52;;;;;;;13.75;2.78;;;12.50;49.50;;;;;;5111131;28;20405;-63
2023/03/31 11:13:31;;;;;;;12.13;2.80;;;12.50;32.50;;;;;;5110725;28;20469;-64
2023/03/31 11:16:21;;;;;;;8.52;2.42;;;12.50;39.70;;;;;;5111019;28;20032;-64
2023/03/31 11:19:13;;;;;;;6.20;2.67;;;12.50;39.10;;;;;;5110772;28;20051;-63
2023/03/31 11:22:18;;;;;;;8.23;2.10;;;12.50;33.30;;;;;;5110716;28;20052;-63
2023/03/31 11:25:15;;;;;;;11.32;2.65;;;12.50;34.70;;;;;;5110828;28;20036;-64
2023/03/31 11:27:58;;;;;;;7.45;2.65;;;12.40;47.60;;;;;;5109500;28;20063;-63
2023/03/31 11:30:31;;;;;;;12.45;2.97;;;12.30;48.90;;;;;;5110762;28;20046;-63
2023/03/31 11:33:08;;;;;;;;;;;12.30;57.90;;;;;;5111082;28;20111;-63
2023/03/31 11:38:46;;;;;;;15.35;3.38;;;12.40;46.90;;;;;;5111148;27;20351;-63
2023/03/31 11:41:31;;;;;;;11.52;3.10;;;12.70;38.60;;;;;;5111117;28;20097;-63
2023/03/31 11:44:15;;;;;;;10.15;3.33;;;12.80;40.20;;;;;;5111416;28;20023;-63
2023/03/31 11:47:09;;;;;;;9.65;2.83;;;12.90;32.80;;;;;;5111098;28;20024;-63
2023/03/31 11:49:50;;;;;;;15.20;3.05;;;13.20;20.10;;;;;;5111036;28;20032;-63
2023/03/31 11:52:20;;;;;;;9.75;2.70;;;13.50;7.00;;;;;;5110980;28;20474;-64
2023/03/31 11:55:21;;;;;;;6.95;2.40;;;13.80;1.00;;;;;;5110991;28;20028;-64
2023/03/31 11:58:00;;;;;;;12.63;3.10;;;14.10;1.00;;;;;;5110708;28;20028;-63
2023/03/31 12:00:51;;;;;;;9.07;2.95;;;13.90;1.00;;;;;;5110601;28;20050;-63
2023/03/31 12:03:22;;;;;;;13.95;3.47;;;14.00;1.00;;;;;;5110485;28;20038;-63
2023/03/31 12:05:52;;;;;;;12.75;3.25;;;13.90;1.00;;;;;;5110475;28;20023;-63
2023/03/31 12:08:40;;;;;;;18.02;3.53;;;13.90;1.00;;;;;;5108947;28;20077;-63
2023/03/31 12:11:21;;;;;;;15.93;3.90;;;13.60;1.00;;;;;;5110293;28;20080;-65
2023/03/31 12:14:20;;;;;;;18.33;3.80;;;12.80;30.10;;;;;;5110457;28;20480;-65
2023/03/31 12:16:50;;;;;;;16.05;3.90;;;12.00;87.10;;;;;;5110486;28;20020;-65
2023/03/31 12:19:41;;;;;;;22.42;5.00;;;11.80;99.90;;;;;;5110598;28;20537;-67
2023/03/31 12:22:17;;;;;;;18.83;3.65;;;11.70;99.90;;;;;;5110082;28;20081;-62
2023/03/31 12:24:42;;;;;;;16.73;3.28;;;11.60;99.90;;;;;;5110305;28;20024;-63
2023/03/31 12:27:23;;;;;;;14.73;2.97;;;11.60;99.90;;;;;;5110315;28;20023;-63
2023/03/31 12:30:00;;;;;;;6.22;1.77;;;11.60;99.90;;;;;;5110046;28;20023;-63
2023/03/31 12:32:31;;;;;;;12.38;2.17;;;11.60;86.30;;;;;;5110048;28;20111;-63
2023/03/31 12:35:20;;;;;;;6.82;1.92;;;11.50;88.20;;;;;;5110014;28;20101;-63
2023/03/31 12:38:14;;;;;;;8.90;1.83;;;11.60;90.20;;;;;;5109711;28;20047;-64
2023/03/31 12:52:45;;;;;;;10.02;1.98;;;12.00;64.20;;;;;;5111097;27;20789;-64
2023/03/31 12:55:33;;;;;;;6.50;1.75;;;12.10;48.00;;;;;;5110899;28;20034;-63
2023/03/31 13:01:10;;;;;;;7.85;2.28;;;12.30;47.70;;;;;;5090689;27;20344;-63
2023/03/31 13:03:40;;;;;;;8.98;2.00;;;12.30;45.00;;;;;;5090603;28;20078;-63
2023/03/31 13:06:10;;;;;;;8.27;1.98;;;12.40;41.80;;;;;;5072817;28;20482;-63
2023/03/31 13:08:56;;;;;;;8.93;2.10;;;12.40;22.80;;;;;;5090795;28;20028;-63
2023/03/31 13:14:39;;;;;;;7.28;2.13;;;12.70;13.20;;;;;;5070609;28;20387;-63
2023/03/31 13:17:30;;;;;;;8.02;2.13;;;12.90;15.00;;;;;;5070342;28;20086;-64
2023/03/31 13:20:15;;;;;;;7.65;2.00;;;13.20;13.10;;;;;;5070644;28;20063;-65
2023/03/31 13:22:47;;;;;;;10.07;1.85;;;13.50;8.60;;;;;;5070402;28;20048;-64
2023/03/31 13:25:39;;;;;;;9.77;2.38;;;13.40;1.00;;;;;;5070494;28;20056;-64
2023/03/31 13:28:26;;;;;;;12.07;2.28;;;13.40;1.00;;;;;;5070433;28;20063;-63
2023/03/31 13:30:56;;;;;;;9.35;2.17;;;13.50;1.00;;;;;;5070042;28;20025;-64
2023/03/31 13:33:47;;;;;;;10.15;2.30;;;13.40;1.00;;;;;;5070089;28;20025;-64
2023/03/31 13:44:54;;;;;;;6.60;2.22;;;13.20;1.00;;;;;;5110989;27;20848;-64
2023/03/31 13:47:48;;;;;;;11.00;2.60;;;13.00;25.70;;;;;;5111155;28;20036;-65